Time;durP1;ratioP1;P1;durP2;ratioP2;P2;SDS_P1;SDS_P2;PMS_P1;PMS_P2;Temp;Humidity;BMP_temperature;BMP_pressure;BME280_temperature;BME280_humidity;BME280_pressure;Samples;Min_cycle;Max_cycle;Signal;HPM_P1;HPM_P2
2023/07/22 00:01:32;;;;;;;5.50;2.77;;;;;;;17.85;68.45;100181.05;1680742;85;21044;-62
2023/07/22 00:04:01;;;;;;;4.00;2.77;;;;;;;17.80;68.58;100174.87;1680859;85;21038;-61
2023/07/22 00:06:30;;;;;;;5.87;3.05;;;;;;;17.74;68.73;100191.11;1680854;85;21023;-64
2023/07/22 00:09:00;;;;;;;6.42;2.72;;;;;;;17.71;68.99;100186.07;1680926;85;21082;-62
2023/07/22 00:11:29;;;;;;;5.30;2.85;;;;;;;17.71;69.32;100181.36;1681028;85;21106;-62
2023/07/22 00:13:58;;;;;;;5.60;2.90;;;;;;;17.71;69.54;100184.69;1680747;84;21103;-64
2023/07/22 00:16:29;;;;;;;5.30;2.55;;;;;;;17.71;69.63;100181.36;1680685;85;21050;-62
2023/07/22 00:19:01;;;;;;;3.47;2.90;;;;;;;17.72;69.65;100169.19;1680761;85;21016;-62
2023/07/22 00:21:31;;;;;;;4.12;2.77;;;;;;;17.70;69.54;100168.60;1680942;85;21077;-62
2023/07/22 00:24:00;;;;;;;6.25;2.80;;;;;;;17.64;69.49;100172.88;1680873;85;21460;-62
2023/07/22 00:26:29;;;;;;;4.08;2.75;;;;;;;17.62;69.67;100166.75;1680894;85;21121;-63
2023/07/22 00:28:58;;;;;;;5.67;2.80;;;;;;;17.63;69.65;100157.34;1680729;85;21035;-61
2023/07/22 00:31:27;;;;;;;4.35;2.70;;;;;;;17.61;69.67;100155.37;1680814;85;21039;-61
2023/07/22 00:33:57;;;;;;;5.58;2.90;;;;;;;17.60;69.80;100163.39;1679541;83;21122;-61
2023/07/22 00:36:26;;;;;;;5.62;2.90;;;;;;;17.60;70.03;100150.92;1678652;85;21499;-61
2023/07/22 00:38:54;;;;;;;3.72;2.60;;;;;;;17.52;70.23;100152.69;1677453;85;21481;-63
2023/07/22 00:41:23;;;;;;;5.40;2.90;;;;;;;17.45;70.59;100147.30;1676400;85;21186;-62
2023/07/22 00:43:51;;;;;;;6.03;3.58;;;;;;;17.34;70.99;100144.89;1676440;85;21051;-61
2023/07/22 00:46:20;;;;;;;6.33;3.52;;;;;;;17.33;71.44;100142.37;1676377;85;21019;-62
2023/07/22 00:48:48;;;;;;;5.80;4.10;;;;;;;17.37;71.57;100140.23;1676447;85;21075;-63
2023/07/22 00:51:19;;;;;;;11.35;4.97;;;;;;;17.42;71.63;100140.88;1679795;85;21090;-62
2023/07/22 00:53:48;;;;;;;11.15;6.85;;;;;;;17.46;71.77;100147.59;1676484;85;21080;-62
2023/07/22 00:56:17;;;;;;;10.43;7.58;;;;;;;17.51;71.74;100138.54;1676442;85;21067;-62
2023/07/22 00:58:46;;;;;;;12.20;7.67;;;;;;;17.54;71.73;100134.72;1676419;85;21035;-61
2023/07/22 01:01:15;;;;;;;9.63;5.83;;;;;;;17.57;71.71;100137.03;1676445;85;21215;-62
2023/07/22 01:03:46;;;;;;;13.15;6.03;;;;;;;17.59;71.65;100140.93;1676194;84;21067;-61
2023/07/22 01:06:14;;;;;;;10.65;6.20;;;;;;;17.58;71.76;100135.94;1676621;85;21047;-61
2023/07/22 01:08:43;;;;;;;7.70;5.47;;;;;;;17.57;71.98;100132.88;1676689;85;21067;-61
2023/07/22 01:11:14;;;;;;;8.35;4.80;;;;;;;17.59;72.15;100142.31;1676605;85;21066;-61
2023/07/22 01:13:43;;;;;;;8.85;4.70;;;;;;;17.61;72.15;100142.91;1676425;85;21551;-61
2023/07/22 01:16:14;;;;;;;7.17;4.17;;;;;;;17.60;72.19;100142.61;1676544;85;21047;-61
2023/07/22 01:18:43;;;;;;;8.28;4.33;;;;;;;17.63;72.23;100146.27;1633323;87;21094;-63
2023/07/22 01:21:11;;;;;;;7.92;4.08;;;;;;;17.66;72.05;100145.25;1649973;85;21515;-62
2023/07/22 01:23:41;;;;;;;5.70;4.00;;;;;;;17.68;71.89;100144.45;1654390;87;21031;-62
2023/07/22 01:26:10;;;;;;;6.33;3.95;;;;;;;17.70;72.03;100142.82;1659782;86;21074;-64
2023/07/22 01:28:41;;;;;;;7.10;4.12;;;;;;;17.70;72.06;100140.05;1659092;86;21053;-63
2023/07/22 01:31:11;;;;;;;7.08;4.22;;;;;;;17.70;72.21;100136.73;1631716;86;21077;-61
2023/07/22 01:33:40;;;;;;;6.75;4.30;;;;;;;17.70;72.26;100140.89;1621440;86;21172;-61
2023/07/22 01:36:09;;;;;;;6.30;4.60;;;;;;;17.73;72.29;100149.25;1611793;89;21090;-61
2023/07/22 01:38:37;;;;;;;5.72;4.15;;;;;;;17.75;72.27;100145.68;1618658;88;21055;-62
2023/07/22 01:41:06;;;;;;;5.78;3.87;;;;;;;17.78;72.20;100147.11;1617115;88;21054;-60
2023/07/22 01:43:36;;;;;;;7.75;3.75;;;;;;;17.77;72.10;100149.04;1626599;87;21483;-62
2023/07/22 01:46:04;;;;;;;5.47;3.75;;;;;;;17.73;72.08;100143.70;1617070;87;21137;-63
2023/07/22 01:48:33;;;;;;;6.30;3.67;;;;;;;17.74;72.11;100148.16;1626259;87;21151;-62
2023/07/22 01:51:03;;;;;;;10.43;3.83;;;;;;;17.75;72.14;100152.61;1616919;88;21065;-62
2023/07/22 01:53:33;;;;;;;5.60;3.50;;;;;;;17.76;72.15;100148.75;1622226;87;21103;-62
2023/07/22 01:56:02;;;;;;;6.20;3.40;;;;;;;17.79;71.95;100142.70;1616880;88;21097;-61
2023/07/22 01:58:33;;;;;;;8.20;4.00;;;;;;;17.80;71.82;100137.99;1627422;86;21047;-61
2023/07/22 02:01:02;;;;;;;6.17;3.55;;;;;;;17.79;71.84;100141.31;1627969;87;21053;-62
2023/07/22 02:03:31;;;;;;;4.70;3.52;;;;;;;17.77;71.88;100143.50;1626486;88;21026;-62
2023/07/22 02:06:05;;;;;;;8.08;3.87;;;;;;;17.75;71.93;100137.36;1625521;88;21102;-63
2023/07/22 02:08:36;;;;;;;6.45;3.45;;;;;;;17.74;72.01;100141.23;1616651;87;21082;-63
2023/07/22 02:11:08;;;;;;;6.55;3.45;;;;;;;17.72;72.00;100142.02;1616541;87;21089;-62
2023/07/22 02:13:37;;;;;;;5.65;3.40;;;;;;;17.71;72.04;100137.03;1616819;89;21514;-63
2023/07/22 02:16:11;;;;;;;4.22;3.10;;;;;;;17.71;72.10;100145.34;1616586;87;21093;-62
2023/07/22 02:18:39;;;;;;;8.80;3.50;;;;;;;17.71;72.06;100147.27;1621209;88;21043;-61
2023/07/22 02:21:08;;;;;;;7.70;3.67;;;;;;;17.69;72.00;100148.91;1619514;87;21065;-63
2023/07/22 02:23:37;;;;;;;6.55;3.65;;;;;;;17.68;72.06;100153.31;1625316;87;21056;-61
2023/07/22 02:26:05;;;;;;;12.10;3.58;;;;;;;17.67;72.20;100149.70;1616862;87;21529;-63
2023/07/22 02:28:34;;;;;;;5.03;3.17;;;;;;;17.70;72.16;100147.82;1625098;87;21114;-63
2023/07/22 02:31:07;;;;;;;6.87;3.10;;;;;;;17.72;72.34;100147.56;1620421;87;21095;-62
2023/07/22 02:33:37;;;;;;;6.50;3.22;;;;;;;17.71;72.45;100159.20;1604124;86;21569;-62
2023/07/22 02:36:06;;;;;;;5.60;3.40;;;;;;;17.72;72.45;100146.19;1692809;85;21062;-62
2023/07/22 02:38:36;;;;;;;6.50;3.30;;;;;;;17.70;72.50;100145.59;1689432;85;21091;-61
2023/07/22 02:41:07;;;;;;;5.87;3.20;;;;;;;17.68;72.64;100154.16;1678020;85;21075;-63
2023/07/22 02:43:35;;;;;;;5.42;3.10;;;;;;;17.69;72.65;100152.23;1677815;84;21036;-61
2023/07/22 02:46:07;;;;;;;5.78;3.30;;;;;;;17.70;72.61;100160.83;1677883;84;21043;-63
2023/07/22 02:48:36;;;;;;;6.05;3.40;;;;;;;17.70;72.65;100164.45;1677882;85;21479;-62
2023/07/22 02:51:06;;;;;;;10.93;4.35;;;;;;;17.71;72.67;100168.89;1677954;85;21052;-63
2023/07/22 02:53:36;;;;;;;11.60;3.75;;;;;;;17.74;72.75;100164.78;1658889;85;21040;-62
2023/07/22 02:56:06;;;;;;;8.00;3.85;;;;;;;17.78;72.68;100158.19;1677881;84;21139;-62
2023/07/22 02:58:37;;;;;;;6.45;3.42;;;;;;;17.82;72.61;100156.05;1678153;85;21079;-60
2023/07/22 03:01:08;;;;;;;5.33;3.40;;;;;;;17.90;72.42;100157.56;1677872;84;21075;-62
2023/07/22 03:03:39;;;;;;;4.78;3.37;;;;;;;17.94;72.08;100158.20;1677999;85;21074;-62
2023/07/22 03:06:09;;;;;;;7.47;3.50;;;;;;;17.99;71.92;100155.51;1678032;84;21036;-63
2023/07/22 03:08:39;;;;;;;5.87;4.17;;;;;;;18.03;71.72;100155.84;1677806;85;21063;-62
2023/07/22 03:11:09;;;;;;;6.53;3.17;;;;;;;18.05;71.61;100157.27;1677783;84;21019;-62
2023/07/22 03:13:38;;;;;;;7.30;3.40;;;;;;;18.08;71.54;100155.08;1677975;85;21037;-62
2023/07/22 03:16:08;;;;;;;9.70;3.87;;;;;;;18.07;71.61;100151.47;1677973;84;21518;-62
2023/07/22 03:18:39;;;;;;;6.80;3.27;;;;;;;18.13;71.62;100156.00;1658962;85;21067;-62
2023/07/22 03:21:08;;;;;;;9.25;3.55;;;;;;;18.19;71.61;100149.44;1677731;85;21621;-62
2023/07/22 03:23:39;;;;;;;5.05;3.12;;;;;;;18.23;71.62;100140.94;1677814;85;21019;-62
2023/07/22 03:26:09;;;;;;;7.15;3.77;;;;;;;18.24;71.52;100132.07;1677768;84;21547;-62
2023/07/22 03:28:41;;;;;;;5.10;3.25;;;;;;;18.25;71.47;100132.37;1677762;84;21051;-63
2023/07/22 03:31:09;;;;;;;6.25;3.27;;;;;;;18.27;71.48;100135.17;1677655;85;21099;-64
2023/07/22 03:33:38;;;;;;;9.08;3.50;;;;;;;18.31;71.39;100131.34;1676835;84;21119;-62
2023/07/22 03:36:07;;;;;;;7.17;3.27;;;;;;;18.32;71.26;100133.02;1654719;86;21122;-62
2023/07/22 03:38:36;;;;;;;9.83;3.60;;;;;;;18.34;71.11;100128.06;1652132;85;21019;-62
2023/07/22 03:41:05;;;;;;;5.58;3.35;;;;;;;18.35;70.87;100126.97;1651989;87;21024;-61
2023/07/22 03:43:34;;;;;;;11.00;4.15;;;;;;;18.36;70.60;100125.88;1640661;87;21088;-62
2023/07/22 03:46:02;;;;;;;6.72;3.10;;;;;;;18.35;70.27;100131.13;1652049;85;21040;-62
2023/07/22 03:48:31;;;;;;;8.18;3.50;;;;;;;18.34;69.91;100126.67;1652185;86;21047;-62
2023/07/22 03:51:00;;;;;;;11.65;3.98;;;;;;;18.31;69.85;100130.80;1651644;87;21468;-61
2023/07/22 03:53:32;;;;;;;10.63;3.62;;;;;;;18.32;69.93;100129.70;1650558;85;21016;-62
2023/07/22 03:56:00;;;;;;;7.75;3.77;;;;;;;18.35;69.80;100129.73;1652068;86;21104;-61
2023/07/22 03:58:30;;;;;;;9.63;3.72;;;;;;;18.37;69.81;100137.26;1652207;85;21519;-63
2023/07/22 04:00:59;;;;;;;5.17;3.80;;;;;;;18.36;69.92;100128.09;1652105;87;21593;-61
2023/07/22 04:03:28;;;;;;;13.48;3.80;;;;;;;18.40;69.94;100128.42;1652115;87;21027;-62
2023/07/22 04:05:57;;;;;;;6.37;3.77;;;;;;;18.45;69.91;100127.66;1652320;86;21043;-62
2023/07/22 04:08:25;;;;;;;6.78;3.67;;;;;;;18.49;69.80;100131.05;1652118;85;21103;-62
2023/07/22 04:10:55;;;;;;;10.05;4.08;;;;;;;18.53;69.75;100132.77;1651922;86;21075;-63
2023/07/22 04:13:25;;;;;;;10.23;3.70;;;;;;;18.58;69.77;100135.06;1652235;85;21060;-62
2023/07/22 04:15:54;;;;;;;10.23;4.40;;;;;;;18.61;69.83;100133.19;1652155;85;21491;-62
2023/07/22 04:18:23;;;;;;;13.75;4.80;;;;;;;18.63;69.90;100131.00;1652261;86;21043;-63
2023/07/22 04:20:57;;;;;;;14.43;4.62;;;;;;;18.68;69.87;100120.51;1652208;87;21056;-62
2023/07/22 04:23:26;;;;;;;6.53;4.20;;;;;;;18.72;69.91;100117.51;1652102;85;21107;-62
2023/07/22 04:25:54;;;;;;;7.85;3.83;;;;;;;18.75;69.73;100114.22;1651890;87;21043;-61
2023/07/22 04:28:23;;;;;;;6.95;4.12;;;;;;;18.82;69.42;100116.80;1651971;85;21036;-62
2023/07/22 04:31:00;;;;;;;7.08;4.20;;;;;;;18.88;69.11;100120.80;1651894;86;21076;-61
2023/07/22 04:33:29;;;;;;;10.90;3.77;;;;;;;18.95;69.01;100124.76;1640945;87;21032;-61
2023/07/22 04:35:59;;;;;;;7.55;4.58;;;;;;;19.01;68.90;100126.50;1657618;85;21241;-63
2023/07/22 04:38:29;;;;;;;8.53;3.90;;;;;;;19.08;68.78;100117.97;1652269;86;21067;-63
2023/07/22 04:41:01;;;;;;;6.60;4.40;;;;;;;19.14;68.77;100114.14;1652173;87;21491;-62
2023/07/22 04:43:29;;;;;;;6.75;4.42;;;;;;;19.19;68.38;100116.42;1652066;87;21077;-62
2023/07/22 04:45:58;;;;;;;6.40;4.08;;;;;;;19.22;68.26;100125.63;1652025;86;21455;-62
2023/07/22 04:48:26;;;;;;;25.57;5.33;;;;;;;19.26;68.17;100126.78;1652252;85;21059;-61
2023/07/22 04:50:55;;;;;;;8.83;4.22;;;;;;;19.32;68.09;100125.73;1652170;86;21071;-61
2023/07/22 04:53:24;;;;;;;9.78;4.03;;;;;;;19.37;67.94;100117.16;1652097;86;21047;-63
2023/07/22 04:55:55;;;;;;;5.85;3.77;;;;;;;19.39;67.94;100116.34;1652150;85;21087;-63
2023/07/22 04:58:24;;;;;;;8.30;3.90;;;;;;;19.44;67.60;100119.17;1652187;87;21052;-63
2023/07/22 05:00:52;;;;;;;5.42;3.33;;;;;;;19.47;67.21;100121.43;1651795;85;21563;-62
2023/07/22 05:03:25;;;;;;;7.03;4.20;;;;;;;19.53;66.84;100120.44;1652399;85;21040;-63
2023/07/22 05:05:54;;;;;;;5.78;3.92;;;;;;;19.55;66.49;100120.47;1652023;85;21487;-63
2023/07/22 05:08:22;;;;;;;7.05;4.30;;;;;;;19.58;66.32;100120.48;1652035;87;21020;-62
2023/07/22 05:10:51;;;;;;;6.10;3.62;;;;;;;19.59;66.05;100116.60;1652293;87;21099;-63
2023/07/22 05:13:22;;;;;;;7.80;4.30;;;;;;;19.61;65.85;100121.34;1652002;85;21172;-63
2023/07/22 05:15:51;;;;;;;6.58;4.30;;;;;;;19.61;65.93;100124.13;1652515;87;21052;-62
2023/07/22 05:18:19;;;;;;;7.62;3.80;;;;;;;19.61;66.11;100126.91;1652420;85;21032;-63
2023/07/22 05:20:48;;;;;;;6.67;3.45;;;;;;;19.61;65.69;100126.91;1652341;86;21111;-61
2023/07/22 05:23:17;;;;;;;4.67;3.30;;;;;;;19.59;65.18;100114.66;1652401;87;21113;-61
2023/07/22 05:25:53;;;;;;;5.47;3.80;;;;;;;19.58;64.91;100112.15;1652307;85;21044;-64
2023/07/22 05:28:22;;;;;;;5.08;3.08;;;;;;;19.57;64.41;100104.36;1652294;86;21519;-63
2023/07/22 05:30:55;;;;;;;6.47;3.15;;;;;;;19.57;64.06;100101.58;1652129;85;21088;-62
2023/07/22 05:33:24;;;;;;;5.25;3.45;;;;;;;19.56;64.01;100103.23;1647195;86;21059;-62
2023/07/22 05:35:52;;;;;;;4.45;3.15;;;;;;;19.54;64.09;100105.44;1659790;85;21036;-62
2023/07/22 05:38:21;;;;;;;6.00;3.05;;;;;;;19.52;63.99;100108.48;1667744;85;21107;-62
2023/07/22 05:40:49;;;;;;;6.35;3.20;;;;;;;19.51;63.87;100105.39;1668181;86;21131;-63
2023/07/22 05:43:18;;;;;;;5.37;3.02;;;;;;;19.49;63.72;100092.83;1667816;86;21044;-61
2023/07/22 05:45:48;;;;;;;10.03;3.35;;;;;;;19.44;63.69;100098.34;1667892;85;21471;-63
2023/07/22 05:48:17;;;;;;;4.53;2.65;;;;;;;19.40;64.08;100109.14;1667872;85;21076;-62
2023/07/22 05:50:46;;;;;;;5.42;3.20;;;;;;;19.38;64.79;100107.17;1668000;85;21144;-63
2023/07/22 05:53:14;;;;;;;3.65;2.75;;;;;;;19.36;65.69;100108.53;1667831;85;21171;-62
2023/07/22 05:55:43;;;;;;;4.12;3.15;;;;;;;19.36;66.49;100114.94;1667977;86;21032;-63
2023/07/22 05:58:19;;;;;;;4.58;2.90;;;;;;;19.34;66.99;100124.08;1667881;86;21475;-62
2023/07/22 06:00:48;;;;;;;5.30;3.15;;;;;;;19.30;68.00;100131.27;1668082;85;21087;-61
2023/07/22 06:03:17;;;;;;;3.00;2.70;;;;;;;19.27;68.72;100145.13;1667950;86;21040;-63
2023/07/22 06:05:46;;;;;;;6.22;2.98;;;;;;;19.24;68.96;100148.98;1667887;85;21083;-62
2023/07/22 06:08:15;;;;;;;3.75;3.02;;;;;;;19.17;69.42;100149.73;1668190;86;21079;-62
2023/07/22 06:10:44;;;;;;;4.08;3.27;;;;;;;19.11;69.68;100148.83;1667849;86;21032;-63
2023/07/22 06:13:14;;;;;;;4.72;2.67;;;;;;;19.04;70.75;100137.09;1667853;85;21044;-61
2023/07/22 06:15:44;;;;;;;5.25;2.98;;;;;;;18.98;70.82;100143.13;1667833;86;21399;-61
2023/07/22 06:18:13;;;;;;;3.47;2.65;;;;;;;18.95;71.23;100130.31;1667851;86;21024;-61
2023/07/22 06:20:42;;;;;;;3.95;2.90;;;;;;;18.90;71.79;100136.64;1667956;86;21040;-62
2023/07/22 06:23:12;;;;;;;4.50;3.20;;;;;;;18.91;72.18;100147.20;1668039;85;21020;-62
2023/07/22 06:25:42;;;;;;;4.17;2.92;;;;;;;18.89;72.95;100140.52;1667767;86;21071;-62
2023/07/22 06:28:11;;;;;;;3.87;3.20;;;;;;;18.90;73.58;100138.58;1667919;85;21068;-61
2023/07/22 06:30:40;;;;;;;11.90;4.92;;;;;;;18.92;74.10;100153.05;1668085;85;21110;-62
2023/07/22 06:33:10;;;;;;;8.50;3.60;;;;;;;18.86;74.78;100153.53;1667589;86;21119;-64
2023/07/22 06:35:39;;;;;;;11.88;4.08;;;;;;;18.80;75.43;100161.47;1667848;85;21063;-64
2023/07/22 06:38:09;;;;;;;5.25;3.50;;;;;;;18.75;76.04;100161.41;1667862;85;21119;-62
2023/07/22 06:40:38;;;;;;;6.20;3.22;;;;;;;18.70;76.86;100166.89;1667750;85;21572;-65
2023/07/22 06:43:09;;;;;;;8.88;3.37;;;;;;;18.61;77.25;100167.88;1667545;85;21466;-64
2023/07/22 06:45:40;;;;;;;6.80;3.30;;;;;;;18.53;78.43;100172.45;1667792;86;21080;-64
2023/07/22 06:48:08;;;;;;;5.75;3.00;;;;;;;18.46;79.33;100167.62;1667983;86;21064;-64
2023/07/22 06:50:37;;;;;;;7.60;3.40;;;;;;;18.39;80.13;100164.20;1667967;86;21040;-64
2023/07/22 06:53:06;;;;;;;4.97;3.20;;;;;;;18.34;81.10;100166.89;1667943;86;21004;-63
2023/07/22 06:55:36;;;;;;;4.92;3.30;;;;;;;18.29;81.85;100168.20;1667915;85;21412;-63
2023/07/22 06:58:05;;;;;;;5.95;3.22;;;;;;;18.23;82.50;100171.45;1667796;85;21074;-62
2023/07/22 07:00:35;;;;;;;6.87;3.52;;;;;;;18.19;83.42;100169.41;1667760;85;21072;-63
2023/07/22 07:03:07;;;;;;;7.75;3.40;;;;;;;18.17;84.02;100167.42;1667981;86;21072;-62
2023/07/22 07:05:41;;;;;;;5.60;3.47;;;;;;;18.13;84.91;100175.41;1668008;85;21087;-63
2023/07/22 07:08:11;;;;;;;8.83;3.50;;;;;;;18.12;85.45;100177.89;1667762;86;21083;-63
2023/07/22 07:10:42;;;;;;;6.15;3.22;;;;;;;18.09;85.74;100175.63;1667737;86;21020;-63
2023/07/22 07:13:12;;;;;;;5.83;3.33;;;;;;;18.05;86.10;100173.06;1667883;86;21088;-62
2023/07/22 07:15:40;;;;;;;6.20;3.40;;;;;;;17.99;86.50;100169.37;1668034;86;21091;-62
2023/07/22 07:18:11;;;;;;;7.45;3.67;;;;;;;17.97;87.25;100168.78;1667985;85;21036;-62
2023/07/22 07:20:41;;;;;;;5.20;3.70;;;;;;;17.95;87.65;100166.80;1667746;85;21048;-62
2023/07/22 07:23:13;;;;;;;7.20;3.77;;;;;;;17.94;88.33;100164.28;1667719;85;21111;-63
2023/07/22 07:25:42;;;;;;;6.20;3.95;;;;;;;17.95;89.07;100164.58;1667997;85;21076;-62
2023/07/22 07:28:14;;;;;;;4.55;3.52;;;;;;;17.95;89.47;100174.28;1667997;85;21048;-61
2023/07/22 07:30:44;;;;;;;8.03;4.00;;;;;;;17.95;89.77;100176.52;1667700;86;21051;-62
2023/07/22 07:33:13;;;;;;;7.10;3.72;;;;;;;17.96;90.19;100171.27;1667872;86;21138;-63
2023/07/22 07:35:48;;;;;;;6.58;3.65;;;;;;;17.98;90.70;100169.08;1667643;84;21504;-63
2023/07/22 07:38:17;;;;;;;6.25;3.80;;;;;;;18.00;91.03;100170.21;1665997;86;21056;-64
2023/07/22 07:40:54;;;;;;;5.42;3.90;;;;;;;17.99;91.28;100165.21;1665666;86;21060;-63
2023/07/22 07:43:22;;;;;;;7.20;3.92;;;;;;;17.99;91.70;100169.37;1648046;86;21060;-64
2023/07/22 07:45:51;;;;;;;7.72;4.08;;;;;;;17.97;91.95;100170.17;1665947;85;21056;-62
2023/07/22 07:48:20;;;;;;;7.15;3.85;;;;;;;17.99;92.50;100162.44;1665530;86;21176;-62
2023/07/22 07:50:50;;;;;;;5.47;3.80;;;;;;;18.01;92.65;100167.19;1665877;85;21103;-63
2023/07/22 07:53:19;;;;;;;7.42;4.03;;;;;;;17.98;92.59;100163.53;1646861;86;21056;-65
2023/07/22 07:55:50;;;;;;;6.33;3.55;;;;;;;17.96;92.83;100167.65;1665450;85;21072;-65
2023/07/22 07:58:18;;;;;;;8.35;4.20;;;;;;;17.92;93.06;100158.99;1665575;86;21161;-66
2023/07/22 08:00:49;;;;;;;10.95;4.50;;;;;;;17.90;93.25;100157.56;1669904;84;21050;-67
2023/07/22 08:03:18;;;;;;;6.65;3.62;;;;;;;17.89;93.78;100153.95;1688297;84;21065;-67
2023/07/22 08:05:47;;;;;;;7.83;3.87;;;;;;;17.91;93.63;100145.39;1688647;84;21046;-66
2023/07/22 08:08:16;;;;;;;7.47;4.28;;;;;;;17.88;93.76;100134.26;1688390;85;20994;-68
2023/07/22 08:10:45;;;;;;;9.33;4.40;;;;;;;17.87;94.25;100131.73;1688344;85;21429;-65
2023/07/22 08:13:15;;;;;;;7.67;3.75;;;;;;;17.84;94.67;100130.86;1688459;85;21433;-68
2023/07/22 08:15:44;;;;;;;8.03;4.10;;;;;;;17.82;94.96;100135.81;1688314;85;21978;-67
2023/07/22 08:18:13;;;;;;;7.65;4.05;;;;;;;17.81;95.41;100132.20;1705210;83;21054;-66
2023/07/22 08:20:42;;;;;;;7.97;4.00;;;;;;;17.81;95.93;100134.97;1705128;83;21014;-67
2023/07/22 08:23:12;;;;;;;6.97;3.77;;;;;;;17.83;96.74;100127.25;1688329;84;20986;-69
2023/07/22 08:25:40;;;;;;;5.17;3.45;;;;;;;17.85;97.45;100130.61;1659658;85;21046;-70
2023/07/22 08:28:11;;;;;;;6.12;3.45;;;;;;;17.88;98.02;100125.95;1688553;85;21030;-66
2023/07/22 08:30:42;;;;;;;8.20;3.90;;;;;;;17.91;98.12;100126.83;1688240;85;21038;-69
2023/07/22 08:33:14;;;;;;;8.35;3.42;;;;;;;17.90;98.13;100114.60;1688407;85;21027;-67
2023/07/22 08:35:47;;;;;;;7.45;3.95;;;;;;;17.91;98.38;100117.67;1704356;83;21548;-69
2023/07/22 08:38:16;;;;;;;6.53;3.77;;;;;;;17.89;98.50;100121.23;1681207;83;21081;-68
2023/07/22 08:40:45;;;;;;;5.95;3.83;;;;;;;17.84;98.62;100123.38;1681092;84;21546;-69
2023/07/22 08:43:14;;;;;;;6.12;3.85;;;;;;;17.82;98.89;100128.34;1673710;84;21067;-70
2023/07/22 08:45:42;;;;;;;8.60;4.35;;;;;;;17.80;99.18;100124.98;1621805;87;21038;-72
2023/07/22 08:48:11;;;;;;;6.50;3.70;;;;;;;17.80;99.45;100119.44;1628430;86;21495;-71
2023/07/22 08:50:55;;;;;;;8.48;3.60;;;;;;;17.83;100.00;100113.94;1621969;87;22104;-73
2023/07/22 08:53:28;;;;;;;6.40;3.77;;;;;;;17.83;100.00;100106.46;1621930;88;21093;-75
2023/07/22 08:55:59;;;;;;;5.90;3.30;;;;;;;17.80;100.00;100104.19;1602921;88;21266;-71
2023/07/22 08:58:27;;;;;;;8.75;3.62;;;;;;;17.79;100.00;100098.91;1631328;86;21043;-71
2023/07/22 09:00:55;;;;;;;5.70;3.75;;;;;;;17.74;100.00;100100.50;1631468;88;21047;-71
2023/07/22 09:03:25;;;;;;;7.53;3.52;;;;;;;17.73;100.00;100092.44;1631626;88;21083;-73
2023/07/22 09:05:54;;;;;;;9.25;4.85;;;;;;;17.71;100.00;100098.23;1631384;88;21079;-70
2023/07/22 09:08:29;;;;;;;7.70;4.35;;;;;;;17.68;100.00;100090.97;1631227;86;21444;-69
2023/07/22 09:11:00;;;;;;;5.97;3.40;;;;;;;17.67;100.00;100093.45;1631235;88;21496;-67
2023/07/22 09:13:29;;;;;;;5.58;3.80;;;;;;;17.66;100.00;100086.20;1631461;86;21064;-70
2023/07/22 09:15:58;;;;;;;6.87;3.52;;;;;;;17.62;100.00;100087.78;1639254;85;21102;-69
2023/07/22 09:18:28;;;;;;;5.05;3.58;;;;;;;17.63;100.00;100091.69;1655244;85;21206;-66
2023/07/22 09:20:56;;;;;;;6.65;4.47;;;;;;;17.63;100.00;100090.30;1660888;86;21098;-70
2023/07/22 09:23:36;;;;;;;8.08;4.20;;;;;;;17.61;100.00;100068.10;1671134;84;21083;-68
2023/07/22 09:26:17;;;;;;;5.83;3.50;;;;;;;17.64;100.00;100063.44;1621519;88;21442;-65
2023/07/22 09:28:55;;;;;;;5.65;3.67;;;;;;;17.61;100.00;100059.79;1621341;87;21073;-65
2023/07/22 09:31:28;;;;;;;6.67;3.95;;;;;;;17.57;100.00;100055.30;1601808;88;21062;-64
2023/07/22 09:34:09;;;;;;;5.47;3.40;;;;;;;17.58;100.00;100054.75;1636026;87;21578;-66
2023/07/22 09:36:56;;;;;;;4.78;3.62;;;;;;;17.53;100.00;100049.94;1641766;86;21119;-64
2023/07/22 09:39:25;;;;;;;4.87;3.40;;;;;;;17.49;100.00;100051.53;1622335;87;21491;-65
2023/07/22 09:41:55;;;;;;;4.85;3.72;;;;;;;17.46;100.00;100049.81;1641849;87;21727;-64
2023/07/22 09:44:26;;;;;;;6.47;4.25;;;;;;;17.40;100.00;100049.72;1641688;87;21095;-65
2023/07/22 09:46:54;;;;;;;7.75;3.60;;;;;;;17.42;100.00;100047.54;1620973;87;21096;-64
2023/07/22 09:49:24;;;;;;;6.37;3.75;;;;;;;17.44;100.00;100036.21;1643553;86;21107;-64
2023/07/22 09:51:53;;;;;;;4.78;3.08;;;;;;;17.42;100.00;100038.39;1671176;84;21118;-66
2023/07/22 09:54:25;;;;;;;5.62;3.40;;;;;;;17.42;100.00;100039.23;1670365;84;21066;-65
2023/07/22 09:56:54;;;;;;;4.65;3.20;;;;;;;17.37;100.00;100043.30;1631030;86;21063;-70
2023/07/22 09:59:24;;;;;;;6.30;3.25;;;;;;;17.35;100.00;100052.41;1671302;86;21012;-67
2023/07/22 10:01:54;;;;;;;4.20;3.20;;;;;;;17.36;100.00;100052.70;1627768;87;21353;-64
2023/07/22 10:04:24;;;;;;;5.83;2.90;;;;;;;17.35;100.00;100042.72;1651778;87;21483;-67
2023/07/22 10:06:53;;;;;;;5.03;2.98;;;;;;;17.32;100.00;100041.83;1651745;87;21580;-67
2023/07/22 10:09:23;;;;;;;4.85;2.87;;;;;;;17.30;100.00;100037.63;1567572;90;21083;-65
2023/07/22 10:11:52;;;;;;;5.00;3.45;;;;;;;17.28;100.00;100033.73;1567409;91;21185;-71
2023/07/22 10:14:22;;;;;;;6.85;3.50;;;;;;;17.25;100.00;100030.08;1567304;91;21498;-75
2023/07/22 10:16:52;;;;;;;5.20;3.25;;;;;;;17.24;100.00;100028.94;1567520;91;21091;-68
2023/07/22 10:19:23;;;;;;;4.70;3.45;;;;;;;17.24;100.00;100024.79;1567361;91;21585;-72
2023/07/22 10:21:52;;;;;;;5.90;3.75;;;;;;;17.22;100.00;100011.74;1548058;91;21165;-67
2023/07/22 10:24:20;;;;;;;5.08;3.60;;;;;;;17.23;100.00;100015.64;1562331;91;21155;-70
2023/07/22 10:26:51;;;;;;;5.47;3.85;;;;;;;17.26;100.00;100010.15;1572971;87;21467;-70
2023/07/22 10:29:20;;;;;;;6.28;4.03;;;;;;;17.26;100.00;100001.30;1641814;87;21131;-69
2023/07/22 10:31:52;;;;;;;4.10;3.37;;;;;;;17.27;100.00;99984.98;1641805;87;21055;-69
2023/07/22 10:34:23;;;;;;;3.75;3.00;;;;;;;17.28;100.00;99990.81;1621454;87;21075;-70
2023/07/22 10:36:51;;;;;;;5.00;3.22;;;;;;;17.25;100.00;99992.70;1642655;87;21067;-68
2023/07/22 10:39:28;;;;;;;5.87;3.10;;;;;;;17.20;100.00;99985.69;1648656;86;21083;-67
2023/07/22 10:42:06;;;;;;;4.20;3.10;;;;;;;17.18;100.00;99987.88;1648399;86;21048;-65
2023/07/22 10:44:41;;;;;;;5.55;3.50;;;;;;;17.13;100.00;99977.26;1648566;87;21118;-73
2023/07/22 10:47:13;;;;;;;4.28;3.30;;;;;;;17.10;100.00;99986.91;1648655;87;21499;-70
2023/07/22 10:49:49;;;;;;;7.97;3.47;;;;;;;17.10;100.00;99982.20;1648483;86;21059;-69
2023/07/22 10:52:42;;;;;;;5.03;3.67;;;;;;;17.07;100.00;99980.48;1628971;87;21035;-69
2023/07/22 10:55:19;;;;;;;4.33;3.12;;;;;;;17.06;100.00;99983.80;1687829;84;21506;-70
2023/07/22 10:57:55;;;;;;;4.05;3.08;;;;;;;17.06;100.00;99971.89;1711681;83;21527;-66
2023/07/22 11:00:25;;;;;;;4.67;3.25;;;;;;;17.04;100.00;99984.59;1712112;84;21121;-68
2023/07/22 11:03:13;;;;;;;3.67;3.27;;;;;;;17.00;100.00;99985.34;1668442;84;21035;-68
2023/07/22 11:05:53;;;;;;;4.83;3.45;;;;;;;16.98;100.00;99981.98;1706573;83;21635;-66
2023/07/22 11:08:38;;;;;;;4.72;3.40;;;;;;;16.99;100.00;99978.97;1653192;86;21154;-65
2023/07/22 11:11:11;;;;;;;4.08;3.45;;;;;;;16.98;100.00;99964.00;1651874;86;21560;-65
2023/07/22 11:13:41;;;;;;;4.60;3.40;;;;;;;16.97;100.00;99967.85;1672601;85;21059;-67
2023/07/22 11:16:11;;;;;;;6.15;3.58;;;;;;;16.96;100.00;99980.02;1631802;85;21032;-67
2023/07/22 11:18:41;;;;;;;4.17;3.00;;;;;;;16.96;100.00;99971.16;1672196;86;21043;-65
2023/07/22 11:21:11;;;;;;;4.90;3.65;;;;;;;17.01;100.00;99978.72;1672352;85;21217;-67
2023/07/22 11:23:41;;;;;;;5.03;3.22;;;;;;;17.00;100.00;99977.87;1670545;86;21476;-66
2023/07/22 11:26:10;;;;;;;5.58;3.20;;;;;;;17.00;100.00;99977.04;1659036;85;21043;-68
2023/07/22 11:28:38;;;;;;;5.80;3.70;;;;;;;17.02;100.00;99966.55;1635438;86;21113;-66
2023/07/22 11:31:07;;;;;;;4.92;3.17;;;;;;;17.03;100.00;99973.22;1715681;82;21050;-71
2023/07/22 11:33:44;;;;;;;3.58;3.00;;;;;;;17.04;100.00;99967.14;1715586;83;21082;-70
2023/07/22 11:36:13;;;;;;;5.67;2.90;;;;;;;17.02;100.00;99965.17;1715929;82;21091;-66
2023/07/22 11:38:42;;;;;;;3.65;3.20;;;;;;;17.02;100.00;99968.78;1715127;82;21014;-67